createdAt,value
2022-08-17T00:01:52.823Z,100004.31
2022-08-17T00:06:08.892Z,100008.34
2022-08-17T00:10:11.232Z,100012.69
2022-08-17T00:14:16.891Z,100025.16
2022-08-17T00:19:06.203Z,100036.53
2022-08-17T00:22:42.613Z,100019.19
2022-08-17T00:26:45.809Z,100009.69
2022-08-17T00:30:52.946Z,100004.69
2022-08-17T00:34:56.412Z,100013.88
2022-08-17T00:38:58.614Z,100027.38
2022-08-17T00:43:13.785Z,100013.22
2022-08-17T00:47:15.907Z,100010.34
2022-08-17T00:51:33.637Z,100018.84
2022-08-17T00:55:35.959Z,100020.53
2022-08-17T00:59:42.947Z,100035.00
2022-08-17T01:03:45.238Z,100044.00
2022-08-17T01:07:51.100Z,100038.66
2022-08-17T01:11:53.210Z,100040.19
2022-08-17T01:16:01.896Z,100037.00
2022-08-17T01:20:04.887Z,100040.00
2022-08-17T01:24:07.892Z,100044.69
2022-08-17T01:28:10.197Z,100054.84
2022-08-17T01:32:33.051Z,100035.88
2022-08-17T01:36:37.494Z,100026.19
2022-08-17T01:40:47.194Z,100037.34
2022-08-17T01:45:11.714Z,100026.34
2022-08-17T01:49:13.918Z,100038.34
2022-08-17T01:53:20.959Z,100040.00
2022-08-17T01:57:23.110Z,100028.84
2022-08-17T02:01:29.069Z,100033.84
2022-08-17T02:05:31.971Z,100046.00
2022-08-17T02:09:34.125Z,100039.31
2022-08-17T02:13:38.070Z,100055.13
2022-08-17T02:17:43.297Z,100058.47
2022-08-17T02:21:47.847Z,100054.97
2022-08-17T02:25:50.319Z,100056.19
2022-08-17T02:29:52.586Z,100044.88
2022-08-17T02:33:56.571Z,100032.84
2022-08-17T02:38:05.707Z,100010.19
2022-08-17T02:42:07.835Z,100005.84
2022-08-17T02:46:10.161Z,100011.03
2022-08-17T02:50:16.405Z,100022.16
2022-08-17T02:54:40.717Z,100024.66
2022-08-17T02:58:41.063Z,100030.16
2022-08-17T03:02:45.939Z,100065.88
2022-08-17T03:06:48.270Z,100068.13
2022-08-17T03:10:50.830Z,100058.97
2022-08-17T03:14:53.410Z,100050.19
2022-08-17T03:18:55.733Z,100040.16
2022-08-17T03:23:01.986Z,100045.78
2022-08-17T03:27:05.454Z,100059.44
2022-08-17T03:31:08.009Z,100060.94
2022-08-17T03:35:12.674Z,100058.41
2022-08-17T03:39:14.995Z,100061.66
2022-08-17T03:43:18.806Z,100082.25
2022-08-17T03:47:40.352Z,100107.03
2022-08-17T03:52:22.530Z,100092.13
2022-08-17T03:56:42.938Z,100079.91
2022-08-17T04:00:46.350Z,100084.53
2022-08-17T04:04:51.398Z,100093.81
2022-08-17T04:08:53.928Z,100101.97
2022-08-17T04:12:58.315Z,100098.81
2022-08-17T04:17:00.495Z,100102.19
2022-08-17T04:21:02.542Z,100095.78
2022-08-17T04:25:17.160Z,100113.47
2022-08-17T04:29:20.060Z,100112.28
2022-08-17T04:33:25.169Z,100099.31
2022-08-17T04:37:27.220Z,100087.19
2022-08-17T04:41:47.974Z,100076.38
2022-08-17T04:46:12.542Z,100076.72
2022-08-17T04:50:15.126Z,100083.91
2022-08-17T04:54:20.652Z,100076.22
2022-08-17T04:58:23.002Z,100090.28
2022-08-17T05:02:25.005Z,100072.91
2022-08-17T05:06:28.888Z,100083.25
2022-08-17T05:10:37.233Z,100057.69
2022-08-17T05:14:48.393Z,100073.16
2022-08-17T05:18:51.085Z,100051.94
2022-08-17T05:22:56.145Z,100054.09
2022-08-17T05:27:02.584Z,100059.13
2022-08-17T05:31:08.823Z,100057.78
2022-08-17T05:35:11.074Z,100071.09
2022-08-17T05:39:17.037Z,100062.56
2022-08-17T05:43:25.785Z,100038.66
2022-08-17T05:47:28.730Z,100056.28
2022-08-17T05:51:30.719Z,100052.38
2022-08-17T05:55:48.499Z,100049.81
2022-08-17T06:00:07.947Z,100046.34
2022-08-17T06:04:53.696Z,100031.66
2022-08-17T06:09:26.627Z,100042.91
2022-08-17T06:13:50.475Z,100031.03
2022-08-17T06:17:58.166Z,100030.84
2022-08-17T06:22:02.906Z,100031.44
2022-08-17T06:26:14.466Z,100032.88
2022-08-17T06:30:25.626Z,100037.81
2022-08-17T06:34:28.466Z,100042.25
2022-08-17T06:38:57.593Z,100049.66
2022-08-17T06:43:07.207Z,100061.53
2022-08-17T06:47:28.121Z,100058.44
2022-08-17T06:51:46.485Z,100052.41
2022-08-17T06:55:59.066Z,100038.06
2022-08-17T07:00:12.821Z,100042.84
2022-08-17T07:04:23.325Z,100045.25
2022-08-17T07:08:53.168Z,100048.13
2022-08-17T07:13:03.424Z,100048.56
2022-08-17T07:17:13.552Z,100054.75
2022-08-17T07:21:40.910Z,100054.28
2022-08-17T07:25:43.112Z,100090.13
2022-08-17T07:29:48.163Z,100122.03
2022-08-17T07:34:14.774Z,100120.72
2022-08-17T07:38:26.832Z,100113.25
2022-08-17T07:42:30.590Z,100106.50
2022-08-17T07:47:05.441Z,100130.34
2022-08-17T07:51:20.649Z,100136.59
2022-08-17T07:55:35.094Z,100132.09
2022-08-17T07:59:43.769Z,100120.38
2022-08-17T08:03:46.475Z,100153.41
2022-08-17T08:07:58.732Z,100128.34
2022-08-17T08:12:33.456Z,100165.63
2022-08-17T08:16:36.977Z,100131.03
2022-08-17T08:20:54.554Z,100135.53
2022-08-17T08:25:03.665Z,100123.81
2022-08-17T08:29:39.866Z,100123.81
2022-08-17T08:33:56.329Z,100140.81
2022-08-17T08:38:20.120Z,100129.97
2022-08-17T08:42:37.736Z,100140.53
2022-08-17T08:46:46.003Z,100132.16
2022-08-17T08:50:54.596Z,100136.91
2022-08-17T08:55:07.746Z,100116.56
2022-08-17T08:59:57.707Z,100129.28
2022-08-17T09:04:19.992Z,100101.56
2022-08-17T09:08:25.547Z,100087.50
2022-08-17T09:12:47.776Z,100144.66
2022-08-17T09:17:04.639Z,100168.13
2022-08-17T09:21:33.813Z,100193.28
2022-08-17T09:25:49.961Z,100186.94
2022-08-17T09:29:59.046Z,100192.34
2022-08-17T09:34:06.283Z,100202.50
2022-08-17T09:38:32.398Z,100202.66
2022-08-17T09:43:16.262Z,100201.47
2022-08-17T09:47:42.231Z,100206.66
2022-08-17T09:52:11.153Z,100209.97
2022-08-17T09:56:45.973Z,100206.88
2022-08-17T10:01:08.183Z,100212.88
2022-08-17T10:05:28.895Z,100202.72
2022-08-17T10:09:58.193Z,100207.66
2022-08-17T10:14:36.703Z,100205.69
2022-08-17T10:18:46.081Z,100210.94
2022-08-17T10:23:29.493Z,100204.88
2022-08-17T10:27:54.817Z,100215.66
2022-08-17T10:32:04.730Z,100221.06
2022-08-17T10:36:29.290Z,100216.78
2022-08-17T10:40:51.660Z,100225.16
2022-08-17T10:45:15.547Z,100221.06
2022-08-17T10:49:17.818Z,100213.16
2022-08-17T10:53:31.697Z,100208.19
2022-08-17T10:57:43.803Z,100210.19
2022-08-17T11:01:58.370Z,100210.59
2022-08-17T11:06:09.887Z,100215.97
2022-08-17T11:10:30.815Z,100212.06
2022-08-17T11:15:00.988Z,100209.88
2022-08-17T11:19:51.447Z,100212.38
2022-08-17T11:23:59.515Z,100210.25
2022-08-17T11:28:09.408Z,100217.13
2022-08-17T11:32:27.978Z,100215.69
2022-08-17T11:36:52.082Z,100215.69
2022-08-17T11:41:11.874Z,100211.06
2022-08-17T11:45:36.009Z,100210.69
2022-08-17T11:50:07.250Z,100211.09
2022-08-17T11:54:33.878Z,100214.72
2022-08-17T11:58:45.424Z,100209.47
2022-08-17T12:02:48.891Z,100208.56
2022-08-17T12:07:20.825Z,100215.78
2022-08-17T12:12:10.951Z,100213.19
2022-08-17T12:15:56.617Z,100205.59
2022-08-17T12:20:15.669Z,100217.25
2022-08-17T12:24:37.358Z,100208.28
2022-08-17T12:28:45.534Z,100203.91
2022-08-17T12:32:48.597Z,100208.09
2022-08-17T12:36:52.024Z,100213.28
2022-08-17T12:40:57.990Z,100219.94
2022-08-17T12:45:01.340Z,100217.03
2022-08-17T12:49:26.479Z,100210.41
2022-08-17T12:53:32.459Z,100213.53
2022-08-17T12:57:52.052Z,100218.06
2022-08-17T13:01:54.521Z,100218.19
2022-08-17T13:06:03.674Z,100209.13
2022-08-17T13:10:06.050Z,100214.59
2022-08-17T13:14:10.103Z,100213.47
2022-08-17T13:18:41.015Z,100221.34
2022-08-17T13:22:44.686Z,100218.16
2022-08-17T13:27:01.754Z,100209.31
2022-08-17T13:31:28.213Z,100205.69
2022-08-17T13:35:49.947Z,100200.56
2022-08-17T13:40:21.487Z,100196.69
2022-08-17T13:44:39.284Z,100205.19
2022-08-17T13:48:41.602Z,100208.06
2022-08-17T13:52:48.803Z,100213.25
2022-08-17T13:57:02.121Z,100206.47
2022-08-17T14:01:43.558Z,100213.69
2022-08-17T14:05:47.333Z,100211.31
2022-08-17T14:09:55.352Z,100217.34
2022-08-17T14:13:58.876Z,100212.63
2022-08-17T14:18:00.925Z,100209.56
2022-08-17T14:22:07.132Z,100211.09
2022-08-17T14:26:09.312Z,100205.81
2022-08-17T14:30:11.935Z,100206.53
2022-08-17T14:34:14.438Z,100206.31
2022-08-17T14:38:17.467Z,100215.69
2022-08-17T14:42:20.636Z,100208.69
2022-08-17T14:46:22.931Z,100207.28
2022-08-17T14:50:24.980Z,100203.50
2022-08-17T14:54:34.125Z,100201.94
2022-08-17T14:58:36.760Z,100205.09
2022-08-17T15:02:53.897Z,100202.00
2022-08-17T15:06:55.960Z,100198.88
2022-08-17T15:10:58.171Z,100197.03
2022-08-17T15:15:01.160Z,100199.47
2022-08-17T15:19:07.839Z,100192.00
2022-08-17T15:23:18.865Z,100189.72
2022-08-17T15:27:25.741Z,100189.72
2022-08-17T15:31:34.765Z,100194.34
2022-08-17T15:35:37.560Z,100204.78
2022-08-17T15:39:39.639Z,100185.44
2022-08-17T15:43:44.706Z,100194.13
2022-08-17T15:47:46.799Z,100193.06
2022-08-17T15:51:49.041Z,100189.03
2022-08-17T15:55:51.048Z,100196.72
2022-08-17T15:59:59.298Z,100194.22
2022-08-17T16:04:06.553Z,100196.91
2022-08-17T16:08:11.406Z,100191.25
2022-08-17T16:12:19.571Z,100193.91
2022-08-17T16:16:24.223Z,100191.16
2022-08-17T16:20:26.774Z,100192.16
2022-08-17T16:24:29.223Z,100198.59
2022-08-17T16:28:35.844Z,100201.28
2022-08-17T16:32:39.188Z,100203.94
2022-08-17T16:36:41.783Z,100198.53
2022-08-17T16:40:58.225Z,100192.75
2022-08-17T16:45:08.909Z,100196.22
2022-08-17T16:49:35.658Z,100201.97
2022-08-17T16:53:37.583Z,100189.31
2022-08-17T16:57:47.301Z,100200.44
2022-08-17T17:01:52.825Z,100207.13
2022-08-17T17:06:18.860Z,100196.63
2022-08-17T17:10:28.859Z,100190.78
2022-08-17T17:14:43.214Z,100187.00
2022-08-17T17:19:12.625Z,100183.41
2022-08-17T17:23:35.297Z,100158.25
2022-08-17T17:27:47.830Z,100161.84
2022-08-17T17:32:21.118Z,100153.81
2022-08-17T17:36:29.529Z,100149.06
2022-08-17T17:40:42.918Z,100142.31
2022-08-17T17:44:56.666Z,100156.44
2022-08-17T17:49:00.229Z,100158.47
2022-08-17T17:53:09.473Z,100153.50
2022-08-17T17:57:29.878Z,100145.25
2022-08-17T18:01:48.793Z,100145.53
2022-08-17T18:06:28.892Z,100144.25
2022-08-17T18:11:00.231Z,100146.09
2022-08-17T18:15:25.694Z,100151.72
2022-08-17T18:19:31.628Z,100149.22
2022-08-17T18:23:34.590Z,100167.44
2022-08-17T18:27:39.944Z,100170.22
2022-08-17T18:31:42.370Z,100164.81
2022-08-17T18:35:59.327Z,100164.19
2022-08-17T18:40:19.898Z,100160.81
2022-08-17T18:44:26.840Z,100165.69
2022-08-17T18:48:58.981Z,100193.75
2022-08-17T18:53:30.233Z,100183.53
2022-08-17T18:57:48.499Z,100182.34
2022-08-17T19:01:58.867Z,100191.38
2022-08-17T19:06:36.891Z,100191.09
2022-08-17T19:10:46.392Z,100194.16
2022-08-17T19:14:52.780Z,100201.69
2022-08-17T19:19:14.735Z,100196.88
2022-08-17T19:23:32.342Z,100203.91
2022-08-17T19:27:46.431Z,100209.00
2022-08-17T19:31:55.447Z,100212.84
2022-08-17T19:36:09.951Z,100239.28
2022-08-17T19:40:53.285Z,100251.84
2022-08-17T19:45:03.586Z,100234.94
2022-08-17T19:49:16.051Z,100236.97
2022-08-17T19:53:42.000Z,100228.31
2022-08-17T19:57:58.342Z,100249.97
2022-08-17T20:02:09.185Z,100254.84
2022-08-17T20:06:13.861Z,100249.81
2022-08-17T20:10:54.527Z,100262.69
2022-08-17T20:15:18.367Z,100266.66
2022-08-17T20:19:36.309Z,100253.47
2022-08-17T20:23:50.332Z,100259.31
2022-08-17T20:28:27.983Z,100268.63
2022-08-17T20:32:45.206Z,100271.34
2022-08-17T20:37:09.019Z,100274.34
2022-08-17T20:41:16.295Z,100284.69
2022-08-17T20:45:21.413Z,100282.16
2022-08-17T20:49:39.883Z,100285.69
2022-08-17T20:54:06.634Z,100290.00
2022-08-17T20:58:15.118Z,100287.38
2022-08-17T21:02:22.202Z,100301.69
2022-08-17T21:06:25.484Z,100321.75
2022-08-17T21:10:27.654Z,100322.97
2022-08-17T21:14:56.284Z,100328.78
2022-08-17T21:19:22.664Z,100335.84
2022-08-17T21:23:58.506Z,100328.41
2022-08-17T21:29:00.218Z,100309.22
2022-08-17T21:33:18.951Z,100316.38
2022-08-17T21:37:24.819Z,100358.81
2022-08-17T21:41:32.122Z,100353.56
2022-08-17T21:45:42.648Z,100339.59
2022-08-17T21:49:45.049Z,100336.94
2022-08-17T21:53:58.157Z,100333.25
2022-08-17T21:58:14.873Z,100332.59
2022-08-17T22:02:24.925Z,100337.94
2022-08-17T22:06:37.200Z,100314.75
2022-08-17T22:10:43.795Z,100311.25
2022-08-17T22:15:06.267Z,100303.88
2022-08-17T22:19:09.190Z,100314.00
2022-08-17T22:23:32.837Z,100312.88
2022-08-17T22:27:55.969Z,100297.53
2022-08-17T22:31:58.389Z,100291.69
2022-08-17T22:36:22.858Z,100317.28
2022-08-17T22:40:30.637Z,100304.56
2022-08-17T22:44:44.971Z,100289.22
2022-08-17T22:48:52.614Z,100298.19
2022-08-17T22:53:21.212Z,100287.81
2022-08-17T22:57:42.765Z,100273.41
2022-08-17T23:02:06.396Z,100301.81
2022-08-17T23:06:11.319Z,100287.22
2022-08-17T23:10:14.808Z,100267.50
2022-08-17T23:14:20.122Z,100279.41
2022-08-17T23:18:23.623Z,100271.25
2022-08-17T23:22:26.029Z,100261.81
2022-08-17T23:26:30.730Z,100281.81
2022-08-17T23:30:36.950Z,100269.13
2022-08-17T23:34:41.108Z,100260.84
2022-08-17T23:38:44.875Z,100272.50
2022-08-17T23:42:47.362Z,100286.69
2022-08-17T23:46:51.412Z,100264.47
2022-08-17T23:50:57.490Z,100261.44
2022-08-17T23:55:07.309Z,100274.53
2022-08-17T23:59:09.588Z,100277.88
